sensor_id;sensor_type;location;lat;lon;timestamp;pressure;altitude;pressure_sealevel;temperature;humidity
74675;BME280;63200;48.810;12.352;2024-03-23T00:52:53;96854.38;;;7.51;100.00
74675;BME280;63200;48.810;12.352;2024-03-23T00:55:18;96798.44;;;7.17;100.00
74675;BME280;63200;48.810;12.352;2024-03-23T00:57:44;96846.22;;;7.56;100.00
74675;BME280;63200;48.810;12.352;2024-03-23T01:00:09;96838.69;;;7.53;100.00
74675;BME280;63200;48.810;12.352;2024-03-23T01:02:36;96786.59;;;7.08;100.00
74675;BME280;63200;48.810;12.352;2024-03-23T01:05:01;96830.31;;;7.05;100.00
74675;BME280;63200;48.810;12.352;2024-03-23T01:07:27;96823.63;;;6.97;100.00
74675;BME280;63200;48.810;12.352;2024-03-23T01:09:52;96823.69;;;6.87;100.00
74675;BME280;63200;48.810;12.352;2024-03-23T01:12:18;96825.31;;;6.77;100.00
74675;BME280;63200;48.810;12.352;2024-03-23T01:14:43;96825.06;;;6.74;100.00
74675;BME280;63200;48.810;12.352;2024-03-23T01:17:08;96782.59;;;6.34;100.00
74675;BME280;63200;48.810;12.352;2024-03-23T01:19:34;96818.94;;;6.53;100.00
74675;BME280;63200;48.810;12.352;2024-03-23T01:21:59;96815.19;;;6.48;100.00
74675;BME280;63200;48.810;12.352;2024-03-23T01:24:25;96814.34;;;6.48;100.00
74675;BME280;63200;48.810;12.352;2024-03-23T01:26:50;96814.06;;;6.55;100.00
74675;BME280;63200;48.810;12.352;2024-03-23T01:29:15;96808.41;;;6.56;100.00
74675;BME280;63200;48.810;12.352;2024-03-23T01:31:41;96806.53;;;6.52;100.00
74675;BME280;63200;48.810;12.352;2024-03-23T01:34:06;96804.69;;;6.37;100.00
74675;BME280;63200;48.810;12.352;2024-03-23T01:36:31;96802.81;;;6.22;100.00
74675;BME280;63200;48.810;12.352;2024-03-23T01:38:56;96808.78;;;6.13;100.00
74675;BME280;63200;48.810;12.352;2024-03-23T01:41:24;96749.81;;;5.76;100.00
74675;BME280;63200;48.810;12.352;2024-03-23T01:43:49;96791.56;;;5.99;100.00
74675;BME280;63200;48.810;12.352;2024-03-23T01:46:14;96792.88;;;5.96;100.00
74675;BME280;63200;48.810;12.352;2024-03-23T01:48:40;96784.53;;;5.93;100.00
74675;BME280;63200;48.810;12.352;2024-03-23T01:51:06;96783.19;;;5.85;100.00
74675;BME280;63200;48.810;12.352;2024-03-23T01:53:31;96770.00;;;5.78;100.00
74675;BME280;63200;48.810;12.352;2024-03-23T01:55:56;96743.63;;;5.60;100.00
74675;BME280;63200;48.810;12.352;2024-03-23T01:58:22;96760.56;;;5.86;100.00
74675;BME280;63200;48.810;12.352;2024-03-23T02:00:47;96763.00;;;5.82;100.00
74675;BME280;63200;48.810;12.352;2024-03-23T02:03:26;96756.00;;;5.76;100.00
74675;BME280;63200;48.810;12.352;2024-03-23T02:05:52;96683.88;;;5.32;100.00
74675;BME280;63200;48.810;12.352;2024-03-23T02:08:20;96749.81;;;5.76;100.00
74675;BME280;63200;48.810;12.352;2024-03-23T02:10:45;96743.06;;;5.73;100.00
74675;BME280;63200;48.810;12.352;2024-03-23T02:13:10;96736.63;;;5.74;100.00
74675;BME280;63200;48.810;12.352;2024-03-23T02:15:36;96743.59;;;5.70;100.00
74675;BME280;63200;48.810;12.352;2024-03-23T02:18:02;96722.91;;;5.34;100.00
74675;BME280;63200;48.810;12.352;2024-03-23T02:20:27;96710.53;;;5.28;100.00
74675;BME280;63200;48.810;12.352;2024-03-23T02:22:55;96712.66;;;5.37;100.00
74675;BME280;63200;48.810;12.352;2024-03-23T02:25:20;96718.59;;;5.44;100.00
74675;BME280;63200;48.810;12.352;2024-03-23T02:27:46;96719.91;;;5.51;100.00
74675;BME280;63200;48.810;12.352;2024-03-23T02:30:11;96656.41;;;5.14;100.00
74675;BME280;63200;48.810;12.352;2024-03-23T02:32:36;96721.00;;;5.61;100.00
74675;BME280;63200;48.810;12.352;2024-03-23T02:35:02;96648.66;;;4.97;100.00
74675;BME280;63200;48.810;12.352;2024-03-23T02:37:27;96720.50;;;5.28;100.00
74675;BME280;63200;48.810;12.352;2024-03-23T02:39:52;96731.78;;;5.25;100.00
74675;BME280;63200;48.810;12.352;2024-03-23T02:42:18;96730.69;;;5.21;100.00
74675;BME280;63200;48.810;12.352;2024-03-23T02:44:44;96665.84;;;4.81;100.00
74675;BME280;63200;48.810;12.352;2024-03-23T02:47:10;96722.91;;;5.19;100.00
74675;BME280;63200;48.810;12.352;2024-03-23T02:49:35;96713.22;;;5.18;100.00
74675;BME280;63200;48.810;12.352;2024-03-23T02:52:00;96666.63;;;4.81;100.00
74675;BME280;63200;48.810;12.352;2024-03-23T02:54:26;96715.88;;;5.13;100.00
74675;BME280;63200;48.810;12.352;2024-03-23T02:56:51;96711.56;;;5.12;100.00
74675;BME280;63200;48.810;12.352;2024-03-23T02:59:16;96703.78;;;5.15;100.00
74675;BME280;63200;48.810;12.352;2024-03-23T03:01:41;96704.06;;;5.19;100.00
74675;BME280;63200;48.810;12.352;2024-03-23T03:04:07;96693.03;;;5.21;100.00
74675;BME280;63200;48.810;12.352;2024-03-23T03:06:33;96701.38;;;5.24;100.00
74675;BME280;63200;48.810;12.352;2024-03-23T03:08:58;96692.47;;;5.34;100.00
74675;BME280;63200;48.810;12.352;2024-03-23T03:11:23;96698.13;;;5.38;100.00
74675;BME280;63200;48.810;12.352;2024-03-23T03:13:48;96685.75;;;5.37;100.00
74675;BME280;63200;48.810;12.352;2024-03-23T03:16:14;96684.41;;;5.34;100.00
74675;BME280;63200;48.810;12.352;2024-03-23T03:18:39;96677.44;;;5.28;100.00
74675;BME280;63200;48.810;12.352;2024-03-23T03:21:06;96679.03;;;5.24;100.00
74675;BME280;63200;48.810;12.352;2024-03-23T03:23:38;96599.66;;;4.75;100.00
74675;BME280;63200;48.810;12.352;2024-03-23T03:26:04;96666.13;;;5.15;100.00
74675;BME280;63200;48.810;12.352;2024-03-23T03:28:31;96663.69;;;5.09;100.00
74675;BME280;63200;48.810;12.352;2024-03-23T03:30:57;96664.75;;;5.03;100.00
74675;BME280;63200;48.810;12.352;2024-03-23T03:33:23;96663.97;;;5.02;100.00
74675;BME280;63200;48.810;12.352;2024-03-23T03:35:48;96664.50;;;5.14;100.00
74675;BME280;63200;48.810;12.352;2024-03-23T03:38:14;96653.72;;;5.30;100.00
74675;BME280;63200;48.810;12.352;2024-03-23T03:40:39;96656.94;;;5.42;100.00
74675;BME280;63200;48.810;12.352;2024-03-23T03:43:06;96650.75;;;5.47;100.00
74675;BME280;63200;48.810;12.352;2024-03-23T03:45:31;96644.81;;;5.45;100.00
74675;BME280;63200;48.810;12.352;2024-03-23T03:47:57;96646.44;;;5.56;100.00
74675;BME280;63200;48.810;12.352;2024-03-23T03:50:22;96646.94;;;5.58;100.00
74675;BME280;63200;48.810;12.352;2024-03-23T03:52:47;96598.84;;;5.26;100.00
74675;BME280;63200;48.810;12.352;2024-03-23T03:55:14;96626.00;;;5.40;100.00
74675;BME280;63200;48.810;12.352;2024-03-23T03:57:39;96633.03;;;5.25;100.00
74675;BME280;63200;48.810;12.352;2024-03-23T04:00:05;96621.44;;;5.09;100.00
74675;BME280;63200;48.810;12.352;2024-03-23T04:02:31;96623.34;;;5.09;100.00
74675;BME280;63200;48.810;12.352;2024-03-23T04:04:56;96618.75;;;5.14;100.00
74675;BME280;63200;48.810;12.352;2024-03-23T04:07:22;96621.72;;;5.23;100.00
74675;BME280;63200;48.810;12.352;2024-03-23T04:09:48;96602.09;;;5.23;100.00
74675;BME280;63200;48.810;12.352;2024-03-23T04:12:14;96567.91;;;5.13;100.00
74675;BME280;63200;48.810;12.352;2024-03-23T04:14:40;96606.34;;;5.44;100.00
74675;BME280;63200;48.810;12.352;2024-03-23T04:17:06;96603.38;;;5.46;100.00
74675;BME280;63200;48.810;12.352;2024-03-23T04:19:31;96592.84;;;5.60;100.00
74675;BME280;63200;48.810;12.352;2024-03-23T04:21:56;96582.84;;;5.71;100.00
74675;BME280;63200;48.810;12.352;2024-03-23T04:24:22;96583.06;;;5.79;100.00
74675;BME280;63200;48.810;12.352;2024-03-23T04:26:48;96592.16;;;5.94;100.00
74675;BME280;63200;48.810;12.352;2024-03-23T04:29:13;96583.00;;;6.05;100.00
74675;BME280;63200;48.810;12.352;2024-03-23T04:31:38;96571.09;;;6.16;100.00
74675;BME280;63200;48.810;12.352;2024-03-23T04:34:04;96572.63;;;6.28;100.00
74675;BME280;63200;48.810;12.352;2024-03-23T04:36:29;96576.31;;;6.42;100.00
74675;BME280;63200;48.810;12.352;2024-03-23T04:38:56;96567.88;;;6.54;100.00
74675;BME280;63200;48.810;12.352;2024-03-23T04:41:22;96500.78;;;6.13;100.00
74675;BME280;63200;48.810;12.352;2024-03-23T04:43:47;96561.09;;;6.62;100.00
74675;BME280;63200;48.810;12.352;2024-03-23T04:46:12;96560.19;;;6.72;100.00
74675;BME280;63200;48.810;12.352;2024-03-23T04:48:37;96560.72;;;6.74;100.00
74675;BME280;63200;48.810;12.352;2024-03-23T04:51:04;96553.38;;;6.79;100.00
74675;BME280;63200;48.810;12.352;2024-03-23T04:53:29;96547.09;;;6.89;100.00
74675;BME280;63200;48.810;12.352;2024-03-23T04:55:55;96533.06;;;6.92;100.00
74675;BME280;63200;48.810;12.352;2024-03-23T04:58:22;96528.97;;;6.95;100.00
74675;BME280;63200;48.810;12.352;2024-03-23T05:00:52;96495.00;;;6.64;100.00
74675;BME280;63200;48.810;12.352;2024-03-23T05:03:17;96520.53;;;7.02;100.00
74675;BME280;63200;48.810;12.352;2024-03-23T05:05:44;96520.53;;;7.02;100.00
74675;BME280;63200;48.810;12.352;2024-03-23T05:08:09;96523.50;;;7.05;100.00
74675;BME280;63200;48.810;12.352;2024-03-23T05:10:35;96508.53;;;7.13;100.00
74675;BME280;63200;48.810;12.352;2024-03-23T05:13:00;96518.25;;;7.14;100.00
74675;BME280;63200;48.810;12.352;2024-03-23T05:15:26;96520.63;;;7.21;100.00
74675;BME280;63200;48.810;12.352;2024-03-23T05:17:51;96524.28;;;7.30;100.00
74675;BME280;63200;48.810;12.352;2024-03-23T05:20:17;96510.97;;;7.39;100.00
74675;BME280;63200;48.810;12.352;2024-03-23T05:22:43;96518.69;;;7.50;100.00
74675;BME280;63200;48.810;12.352;2024-03-23T05:25:08;96520.44;;;7.60;100.00
74675;BME280;63200;48.810;12.352;2024-03-23T05:27:34;96507.03;;;7.74;100.00
74675;BME280;63200;48.810;12.352;2024-03-23T05:30:00;96506.91;;;7.84;100.00
74675;BME280;63200;48.810;12.352;2024-03-23T05:32:25;96486.59;;;7.68;100.00
74675;BME280;63200;48.810;12.352;2024-03-23T05:34:50;96499.53;;;7.90;100.00
74675;BME280;63200;48.810;12.352;2024-03-23T05:37:21;96501.28;;;8.00;100.00
74675;BME280;63200;48.810;12.352;2024-03-23T05:39:46;96495.31;;;8.03;100.00
74675;BME280;63200;48.810;12.352;2024-03-23T05:42:13;96486.78;;;8.15;100.00
74675;BME280;63200;48.810;12.352;2024-03-23T05:44:39;96491.94;;;8.30;100.00
74675;BME280;63200;48.810;12.352;2024-03-23T05:47:05;96448.19;;;8.09;100.00
74675;BME280;63200;48.810;12.352;2024-03-23T05:49:30;96489.25;;;8.49;100.00
74675;BME280;63200;48.810;12.352;2024-03-23T05:51:55;96496.47;;;8.54;100.00
74675;BME280;63200;48.810;12.352;2024-03-23T05:54:21;96497.78;;;8.57;100.00
74675;BME280;63200;48.810;12.352;2024-03-23T05:56:46;96482.69;;;8.70;100.00
74675;BME280;63200;48.810;12.352;2024-03-23T05:59:11;96492.41;;;8.71;100.00
74675;BME280;63200;48.810;12.352;2024-03-23T06:01:37;96489.31;;;8.77;100.00
74675;BME280;63200;48.810;12.352;2024-03-23T06:04:04;96491.28;;;8.72;100.00
74675;BME280;63200;48.810;12.352;2024-03-23T06:06:29;96486.72;;;8.72;100.00
74675;BME280;63200;48.810;12.352;2024-03-23T06:08:55;96491.81;;;8.74;100.00
74675;BME280;63200;48.810;12.352;2024-03-23T06:11:20;96487.03;;;8.84;100.00
74675;BME280;63200;48.810;12.352;2024-03-23T06:13:46;96477.72;;;8.91;100.00
74675;BME280;63200;48.810;12.352;2024-03-23T06:16:11;96460.50;;;9.28;100.00
74675;BME280;63200;48.810;12.352;2024-03-23T06:18:36;96458.38;;;9.39;100.00
74675;BME280;63200;48.810;12.352;2024-03-23T06:21:02;96455.81;;;9.34;100.00
74675;BME280;63200;48.810;12.352;2024-03-23T06:23:27;96451.59;;;9.28;100.00
74675;BME280;63200;48.810;12.352;2024-03-23T06:25:52;96454.56;;;9.12;100.00
74675;BME280;63200;48.810;12.352;2024-03-23T06:28:17;96421.28;;;8.98;100.00
74675;BME280;63200;48.810;12.352;2024-03-23T06:30:43;96430.19;;;9.40;100.00
74675;BME280;63200;48.810;12.352;2024-03-23T06:33:08;96422.44;;;11.38;92.17
74675;BME280;63200;48.810;12.352;2024-03-23T06:35:34;96408.22;;;13.20;78.10
74675;BME280;63200;48.810;12.352;2024-03-23T06:37:59;96422.75;;;14.68;70.59
74675;BME280;63200;48.810;12.352;2024-03-23T06:40:24;96413.06;;;15.16;63.81
74675;BME280;63200;48.810;12.352;2024-03-23T06:42:50;96417.03;;;15.07;61.57
74675;BME280;63200;48.810;12.352;2024-03-23T06:45:16;96412.03;;;15.71;62.67
74675;BME280;63200;48.810;12.352;2024-03-23T06:47:41;96403.34;;;16.78;59.90
74675;BME280;63200;48.810;12.352;2024-03-23T06:50:07;96368.94;;;16.81;57.58
74675;BME280;63200;48.810;12.352;2024-03-23T06:52:32;96393.50;;;17.22;55.82
74675;BME280;63200;48.810;12.352;2024-03-23T06:54:58;96393.41;;;17.18;55.56
74675;BME280;63200;48.810;12.352;2024-03-23T06:57:23;96372.47;;;17.97;54.30
74675;BME280;63200;48.810;12.352;2024-03-23T06:59:48;96400.41;;;18.81;52.66
74675;BME280;63200;48.810;12.352;2024-03-23T07:02:14;96390.84;;;18.32;52.64
74675;BME280;63200;48.810;12.352;2024-03-23T07:04:39;96383.69;;;18.08;53.02
74675;BME280;63200;48.810;12.352;2024-03-23T07:07:05;96387.09;;;18.21;53.00
74675;BME280;63200;48.810;12.352;2024-03-23T07:09:30;96384.50;;;19.63;52.49
74675;BME280;63200;48.810;12.352;2024-03-23T07:11:58;96380.47;;;19.30;51.81
74675;BME280;63200;48.810;12.352;2024-03-23T07:14:24;96384.03;;;17.19;56.61
74675;BME280;63200;48.810;12.352;2024-03-23T07:16:50;96379.66;;;16.13;59.49
74675;BME280;63200;48.810;12.352;2024-03-23T07:19:16;96373.31;;;15.31;62.78
74675;BME280;63200;48.810;12.352;2024-03-23T07:21:45;96367.53;;;14.62;66.88
74675;BME280;63200;48.810;12.352;2024-03-23T07:24:11;96355.28;;;14.69;67.73
74675;BME280;63200;48.810;12.352;2024-03-23T07:26:36;96359.50;;;14.91;68.94
74675;BME280;63200;48.810;12.352;2024-03-23T07:29:03;96362.09;;;16.14;65.13
74675;BME280;63200;48.810;12.352;2024-03-23T07:31:29;96360.13;;;17.20;59.44
74675;BME280;63200;48.810;12.352;2024-03-23T07:33:54;96354.69;;;15.87;60.14
74675;BME280;63200;48.810;12.352;2024-03-23T07:36:19;96346.53;;;14.75;62.70
74675;BME280;63200;48.810;12.352;2024-03-23T07:38:44;96347.56;;;14.04;66.86
74675;BME280;63200;48.810;12.352;2024-03-23T07:41:18;96343.69;;;13.62;69.02
74675;BME280;63200;48.810;12.352;2024-03-23T07:43:44;96360.22;;;13.36;68.96
74675;BME280;63200;48.810;12.352;2024-03-23T07:46:10;96348.28;;;13.20;70.35
74675;BME280;63200;48.810;12.352;2024-03-23T07:48:35;96355.97;;;13.17;71.62
74675;BME280;63200;48.810;12.352;2024-03-23T07:51:06;96359.16;;;12.90;72.16
74675;BME280;63200;48.810;12.352;2024-03-23T07:53:32;96361.41;;;12.88;76.60
74675;BME280;63200;48.810;12.352;2024-03-23T07:56:02;96378.59;;;12.79;78.45
74675;BME280;63200;48.810;12.352;2024-03-23T07:58:28;96380.56;;;12.61;78.65
74675;BME280;63200;48.810;12.352;2024-03-23T08:00:55;96401.06;;;12.50;79.54
74675;BME280;63200;48.810;12.352;2024-03-23T08:03:20;96415.50;;;12.42;80.01
74675;BME280;63200;48.810;12.352;2024-03-23T08:05:46;96417.59;;;12.27;89.79
74675;BME280;63200;48.810;12.352;2024-03-23T08:08:11;96458.25;;;12.06;84.96
74675;BME280;63200;48.810;12.352;2024-03-23T08:10:46;96482.03;;;11.83;87.05
74675;BME280;63200;48.810;12.352;2024-03-23T08:13:11;96499.56;;;11.19;99.50
74675;BME280;63200;48.810;12.352;2024-03-23T08:15:37;96511.31;;;10.74;100.00
74675;BME280;63200;48.810;12.352;2024-03-23T08:18:02;96530.81;;;10.40;100.00
74675;BME280;63200;48.810;12.352;2024-03-23T08:20:28;96529.09;;;10.07;100.00
74675;BME280;63200;48.810;12.352;2024-03-23T08:22:53;96529.72;;;9.90;100.00
74675;BME280;63200;48.810;12.352;2024-03-23T08:25:18;96540.69;;;9.71;100.00
74675;BME280;63200;48.810;12.352;2024-03-23T08:27:44;96566.88;;;9.62;100.00
74675;BME280;63200;48.810;12.352;2024-03-23T08:30:10;96559.84;;;9.61;100.00
74675;BME280;63200;48.810;12.352;2024-03-23T08:32:36;96555.72;;;9.49;100.00
74675;BME280;63200;48.810;12.352;2024-03-23T08:35:01;96559.81;;;9.47;100.00
74675;BME280;63200;48.810;12.352;2024-03-23T08:37:27;96563.03;;;9.35;100.00
74675;BME280;63200;48.810;12.352;2024-03-23T08:39:52;96557.50;;;9.26;100.00
74675;BME280;63200;48.810;12.352;2024-03-23T08:42:18;96556.75;;;9.07;100.00
74675;BME280;63200;48.810;12.352;2024-03-23T08:44:43;96565.09;;;9.10;100.00
74675;BME280;63200;48.810;12.352;2024-03-23T08:47:11;96578.38;;;8.93;100.00
74675;BME280;63200;48.810;12.352;2024-03-23T08:49:37;96583.22;;;8.96;100.00
74675;BME280;63200;48.810;12.352;2024-03-23T08:52:02;96578.09;;;8.94;100.00
74675;BME280;63200;48.810;12.352;2024-03-23T08:54:27;96582.72;;;8.75;100.00
74675;BME280;63200;48.810;12.352;2024-03-23T08:56:54;96591.03;;;8.78;100.00
74675;BME280;63200;48.810;12.352;2024-03-23T08:59:19;96592.22;;;8.72;100.00
74675;BME280;63200;48.810;12.352;2024-03-23T09:01:45;96608.47;;;8.72;100.00
74675;BME280;63200;48.810;12.352;2024-03-23T09:04:10;96603.78;;;8.78;100.00
74675;BME280;63200;48.810;12.352;2024-03-23T09:06:36;96601.38;;;8.76;100.00
74675;BME280;63200;48.810;12.352;2024-03-23T09:09:01;96601.75;;;8.70;100.00
74675;BME280;63200;48.810;12.352;2024-03-23T09:11:27;96598.44;;;8.73;100.00
74675;BME280;63200;48.810;12.352;2024-03-23T09:13:52;96592.22;;;8.72;100.00
74675;BME280;63200;48.810;12.352;2024-03-23T09:16:17;96550.63;;;8.49;100.00
74675;BME280;63200;48.810;12.352;2024-03-23T09:18:42;96590.53;;;8.76;100.00
74675;BME280;63200;48.810;12.352;2024-03-23T09:21:12;96595.34;;;8.98;100.00
74675;BME280;63200;48.810;12.352;2024-03-23T09:23:39;96608.28;;;9.02;100.00
74675;BME280;63200;48.810;12.352;2024-03-23T09:26:04;96607.75;;;8.99;100.00
74675;BME280;63200;48.810;12.352;2024-03-23T09:28:30;96587.69;;;8.87;100.00
74675;BME280;63200;48.810;12.352;2024-03-23T09:31:01;96624.06;;;9.13;100.00
74675;BME280;63200;48.810;12.352;2024-03-23T09:33:26;96634.28;;;9.16;100.00
74675;BME280;63200;48.810;12.352;2024-03-23T09:35:52;96634.94;;;9.27;100.00
74675;BME280;63200;48.810;12.352;2024-03-23T09:38:17;96619.06;;;9.21;100.00
74675;BME280;63200;48.810;12.352;2024-03-23T09:40:43;96620.00;;;9.30;100.00
74675;BME280;63200;48.810;12.352;2024-03-23T09:43:09;96607.38;;;9.39;100.00
74675;BME280;63200;48.810;12.352;2024-03-23T09:45:38;96605.69;;;9.43;100.00
74675;BME280;63200;48.810;12.352;2024-03-23T09:48:04;96611.75;;;9.82;100.00
74675;BME280;63200;48.810;12.352;2024-03-23T09:50:29;96634.44;;;9.86;100.00
74675;BME280;63200;48.810;12.352;2024-03-23T09:52:55;96628.63;;;9.93;100.00
74675;BME280;63200;48.810;12.352;2024-03-23T09:55:20;96622.28;;;10.11;100.00
74675;BME280;63200;48.810;12.352;2024-03-23T09:57:45;96632.41;;;10.20;100.00
74675;BME280;63200;48.810;12.352;2024-03-23T10:00:11;96643.97;;;9.97;100.00
74675;BME280;63200;48.810;12.352;2024-03-23T10:02:37;96631.03;;;10.08;100.00
74675;BME280;63200;48.810;12.352;2024-03-23T10:05:03;96639.84;;;10.00;100.00
74675;BME280;63200;48.810;12.352;2024-03-23T10:07:29;96645.97;;;9.92;100.00
74675;BME280;63200;48.810;12.352;2024-03-23T10:09:54;96651.63;;;9.95;100.00
74675;BME280;63200;48.810;12.352;2024-03-23T10:12:20;96647.19;;;9.99;100.00
74675;BME280;63200;48.810;12.352;2024-03-23T10:14:46;96634.34;;;9.91;100.00
74675;BME280;63200;48.810;12.352;2024-03-23T10:17:19;96652.81;;;10.17;100.00
74675;BME280;63200;48.810;12.352;2024-03-23T10:19:48;96663.16;;;10.15;100.00
74675;BME280;63200;48.810;12.352;2024-03-23T10:24:43;96654.44;;;10.04;100.00
74675;BME280;63200;48.810;12.352;2024-03-23T10:27:09;96657.81;;;10.24;100.00
74675;BME280;63200;48.810;12.352;2024-03-23T10:29:34;96607.31;;;10.00;99.65
74675;BME280;63200;48.810;12.352;2024-03-23T10:32:10;96602.53;;;9.83;100.00
74675;BME280;63200;48.810;12.352;2024-03-23T10:34:36;96668.00;;;10.32;100.00
74675;BME280;63200;48.810;12.352;2024-03-23T10:37:03;96677.03;;;10.13;100.00
74675;BME280;63200;48.810;12.352;2024-03-23T10:39:33;96652.00;;;9.89;95.86
74675;BME280;63200;48.810;12.352;2024-03-23T10:42:01;96662.91;;;9.56;100.00
74675;BME280;63200;48.810;12.352;2024-03-23T10:44:28;96692.34;;;9.76;100.00
74675;BME280;63200;48.810;12.352;2024-03-23T10:46:55;96647.38;;;9.28;100.00
74675;BME280;63200;48.810;12.352;2024-03-23T10:49:26;96685.41;;;9.70;100.00
74675;BME280;63200;48.810;12.352;2024-03-23T10:51:52;96669.81;;;9.95;97.97
74675;BME280;63200;48.810;12.352;2024-03-23T10:54:18;96691.28;;;10.19;96.62
74675;BME280;63200;48.810;12.352;2024-03-23T10:56:44;96690.19;;;10.34;91.88
74675;BME280;63200;48.810;12.352;2024-03-23T10:59:11;96697.63;;;10.42;83.70
74675;BME280;63200;48.810;12.352;2024-03-23T11:01:57;96696.31;;;10.26;77.01
74675;BME280;63200;48.810;12.352;2024-03-23T11:04:36;96699.75;;;10.45;79.74
74675;BME280;63200;48.810;12.352;2024-03-23T11:09:48;96717.50;;;9.63;80.34
74675;BME280;63200;48.810;12.352;2024-03-23T11:14:48;96712.09;;;9.63;76.86
74675;BME280;63200;48.810;12.352;2024-03-23T11:17:18;96711.00;;;9.64;76.60
74675;BME280;63200;48.810;12.352;2024-03-23T11:19:43;96726.13;;;9.98;74.10
74675;BME280;63200;48.810;12.352;2024-03-23T11:22:09;96734.66;;;10.05;74.36
74675;BME280;63200;48.810;12.352;2024-03-23T11:24:34;96749.06;;;10.20;75.35
74675;BME280;63200;48.810;12.352;2024-03-23T11:27:00;96704.63;;;9.88;72.19
74675;BME280;63200;48.810;12.352;2024-03-23T11:29:29;96738.63;;;10.27;67.35
74675;BME280;63200;48.810;12.352;2024-03-23T11:31:54;96744.13;;;9.75;67.64
74675;BME280;63200;48.810;12.352;2024-03-23T11:34:20;96747.59;;;9.09;67.20
74675;BME280;63200;48.810;12.352;2024-03-23T11:36:46;96750.28;;;8.90;70.64
74675;BME280;63200;48.810;12.352;2024-03-23T11:39:19;96767.28;;;8.96;72.06
74675;BME280;63200;48.810;12.352;2024-03-23T11:41:55;96788.94;;;8.96;73.45
74675;BME280;63200;48.810;12.352;2024-03-23T11:44:22;96788.22;;;9.09;71.92
74675;BME280;63200;48.810;12.352;2024-03-23T11:46:48;96782.59;;;9.25;73.63
74675;BME280;63200;48.810;12.352;2024-03-23T11:49:23;96791.75;;;9.29;68.31
74675;BME280;63200;48.810;12.352;2024-03-23T11:51:50;96787.56;;;9.17;69.40
74675;BME280;63200;48.810;12.352;2024-03-23T11:54:16;96800.59;;;9.34;67.32
74675;BME280;63200;48.810;12.352;2024-03-23T11:57:01;96800.53;;;9.40;66.13
74675;BME280;63200;48.810;12.352;2024-03-23T11:59:33;96804.09;;;9.35;64.29
74675;BME280;63200;48.810;12.352;2024-03-23T12:01:59;96799.19;;;9.37;64.21
74675;BME280;63200;48.810;12.352;2024-03-23T12:04:26;96805.34;;;9.43;64.73
74675;BME280;63200;48.810;12.352;2024-03-23T12:07:17;96805.78;;;9.31;64.13
74675;BME280;63200;48.810;12.352;2024-03-23T12:10:01;96792.25;;;9.50;64.78
74675;BME280;63200;48.810;12.352;2024-03-23T12:12:28;96789.44;;;9.74;63.02
74675;BME280;63200;48.810;12.352;2024-03-23T12:15:03;96801.69;;;9.53;62.72
74675;BME280;63200;48.810;12.352;2024-03-23T12:17:29;96787.84;;;10.20;63.36
74675;BME280;63200;48.810;12.352;2024-03-23T12:19:54;96797.25;;;9.76;62.23
74675;BME280;63200;48.810;12.352;2024-03-23T12:22:22;96739.59;;;9.18;62.19
74675;BME280;63200;48.810;12.352;2024-03-23T12:24:48;96778.66;;;9.69;62.98
74675;BME280;63200;48.810;12.352;2024-03-23T12:27:14;96786.75;;;9.55;66.01
74675;BME280;63200;48.810;12.352;2024-03-23T12:29:40;96788.22;;;9.09;68.00
74675;BME280;63200;48.810;12.352;2024-03-23T12:32:06;96716.06;;;8.32;73.17
74675;BME280;63200;48.810;12.352;2024-03-23T12:34:32;96823.28;;;8.76;76.50
74675;BME280;63200;48.810;12.352;2024-03-23T12:36:57;96820.41;;;8.38;70.39
74675;BME280;63200;48.810;12.352;2024-03-23T12:39:22;96827.00;;;8.27;69.23
74675;BME280;63200;48.810;12.352;2024-03-23T12:41:48;96828.19;;;8.45;67.03
74675;BME280;63200;48.810;12.352;2024-03-23T12:44:14;96819.34;;;8.63;66.15
74675;BME280;63200;48.810;12.352;2024-03-23T12:46:40;96827.91;;;8.76;66.71
74675;BME280;63200;48.810;12.352;2024-03-23T12:49:06;96787.72;;;8.64;65.63
74675;BME280;63200;48.810;12.352;2024-03-23T12:51:32;96828.53;;;9.11;64.38
74675;BME280;63200;48.810;12.352;2024-03-23T12:53:57;96809.34;;;9.07;64.80
74675;BME280;63200;48.810;12.352;2024-03-23T12:56:22;96810.53;;;9.01;64.10
74675;BME280;63200;48.810;12.352;2024-03-23T12:58:48;96816.38;;;8.89;62.78
74675;BME280;63200;48.810;12.352;2024-03-23T13:01:16;96812.78;;;8.94;63.59
74675;BME280;63200;48.810;12.352;2024-03-23T13:03:41;96821.47;;;8.66;62.02
74675;BME280;63200;48.810;12.352;2024-03-23T13:06:09;96822.13;;;8.58;61.72
74675;BME280;63200;48.810;12.352;2024-03-23T13:08:34;96808.53;;;8.63;62.15
74675;BME280;63200;48.810;12.352;2024-03-23T13:11:00;96801.50;;;8.62;62.78
74675;BME280;63200;48.810;12.352;2024-03-23T13:13:25;96805.78;;;8.69;63.24
74675;BME280;63200;48.810;12.352;2024-03-23T13:15:51;96799.66;;;8.82;64.85
74675;BME280;63200;48.810;12.352;2024-03-23T13:18:16;96809.28;;;8.69;62.74
74675;BME280;63200;48.810;12.352;2024-03-23T13:20:41;96816.84;;;8.72;63.58
74675;BME280;63200;48.810;12.352;2024-03-23T13:23:07;96813.84;;;8.74;62.66
74675;BME280;63200;48.810;12.352;2024-03-23T13:25:32;96823.63;;;8.45;62.20
74675;BME280;63200;48.810;12.352;2024-03-23T13:27:58;96825.41;;;8.55;62.14
74675;BME280;63200;48.810;12.352;2024-03-23T13:30:23;96788.44;;;8.16;62.46
74675;BME280;63200;48.810;12.352;2024-03-23T13:32:48;96823.66;;;8.40;62.84
74675;BME280;63200;48.810;12.352;2024-03-23T13:35:14;96823.69;;;8.35;61.77
74675;BME280;63200;48.810;12.352;2024-03-23T13:37:39;96826.06;;;8.42;61.56
74675;BME280;63200;48.810;12.352;2024-03-23T13:40:06;96823.00;;;8.54;62.94
74675;BME280;63200;48.810;12.352;2024-03-23T13:42:31;96815.81;;;8.68;62.47
74675;BME280;63200;48.810;12.352;2024-03-23T13:44:56;96827.72;;;8.67;62.40
74675;BME280;63200;48.810;12.352;2024-03-23T13:47:22;96827.66;;;8.72;61.86